createdAt,value
2023-04-27T00:02:36.507Z,78.94
2023-04-27T00:05:42.226Z,79.06
2023-04-27T00:08:49.095Z,80.03
2023-04-27T00:11:55.820Z,79.94
2023-04-27T00:15:00.834Z,80.12
2023-04-27T00:18:08.187Z,80.28
2023-04-27T00:21:15.001Z,80.11
2023-04-27T00:24:21.240Z,80.78
2023-04-27T00:27:26.132Z,80.95
2023-04-27T00:30:31.275Z,81.53
2023-04-27T00:33:36.906Z,82.01
2023-04-27T00:36:42.422Z,82.72
2023-04-27T00:39:48.962Z,82.93
2023-04-27T00:42:55.216Z,83.32
2023-04-27T00:46:02.773Z,83.66
2023-04-27T00:49:08.254Z,83.82
2023-04-27T00:52:14.936Z,83.58
2023-04-27T00:55:21.230Z,83.32
2023-04-27T00:58:28.239Z,83.44
2023-04-27T01:01:33.458Z,83.54
2023-04-27T01:04:39.108Z,83.60
2023-04-27T01:07:45.887Z,84.64
2023-04-27T01:10:53.068Z,84.78
2023-04-27T01:13:59.254Z,85.03
2023-04-27T01:17:06.329Z,85.16
2023-04-27T01:20:13.667Z,85.11
2023-04-27T01:23:18.703Z,85.51
2023-04-27T01:26:24.480Z,84.81
2023-04-27T01:29:31.055Z,85.34
2023-04-27T01:32:36.913Z,85.94
2023-04-27T01:35:42.917Z,86.47
2023-04-27T01:38:48.903Z,87.52
2023-04-27T01:41:58.272Z,88.35
2023-04-27T01:45:02.521Z,88.41
2023-04-27T01:48:09.072Z,88.95
2023-04-27T01:51:15.091Z,89.14
2023-04-27T01:54:20.138Z,90.13
2023-04-27T01:57:25.830Z,90.55
2023-04-27T02:00:33.415Z,90.56
2023-04-27T02:03:38.688Z,90.66
2023-04-27T02:06:43.785Z,90.68
2023-04-27T02:09:49.196Z,90.55
2023-04-27T02:12:55.484Z,91.11
2023-04-27T02:16:00.616Z,91.17
2023-04-27T02:19:05.957Z,91.61
2023-04-27T02:22:11.130Z,91.50
2023-04-27T02:25:16.575Z,92.25
2023-04-27T02:28:21.561Z,92.27
2023-04-27T02:31:27.681Z,92.34
2023-04-27T02:34:32.676Z,92.23
2023-04-27T02:37:38.263Z,92.86
2023-04-27T02:40:46.817Z,93.15
2023-04-27T03:10:21.758Z,99.42
2023-04-27T03:13:29.331Z,98.65
2023-04-27T03:16:34.533Z,99.48
2023-04-27T03:19:42.166Z,99.36
2023-04-27T03:22:41.145Z,99.57
2023-04-27T03:25:46.487Z,99.24
2023-04-27T03:28:52.038Z,99.04
2023-04-27T03:32:00.512Z,98.81
2023-04-27T03:35:06.182Z,99.03
2023-04-27T03:38:11.353Z,98.41
2023-04-27T03:41:18.759Z,99.06
2023-04-27T03:44:24.065Z,99.63
2023-04-27T03:47:30.676Z,99.31
2023-04-27T03:50:35.896Z,99.83
2023-04-27T03:53:41.742Z,100.00
2023-04-27T03:56:48.209Z,100.00
2023-04-27T03:59:53.815Z,100.00
2023-04-27T04:03:00.641Z,100.00
2023-04-27T04:06:07.480Z,100.00
2023-04-27T04:09:14.426Z,100.00
2023-04-27T04:12:21.406Z,100.00
2023-04-27T04:15:27.910Z,100.00
2023-04-27T04:18:34.431Z,100.00
2023-04-27T04:21:41.511Z,100.00
2023-04-27T04:24:46.922Z,100.00
2023-04-27T04:27:55.416Z,100.00
2023-04-27T04:31:02.293Z,100.00
2023-04-27T04:34:07.900Z,100.00
2023-04-27T04:37:13.631Z,100.00
2023-04-27T04:40:23.024Z,100.00
2023-04-27T04:43:29.353Z,100.00
2023-04-27T04:46:37.565Z,100.00
2023-04-27T04:49:44.403Z,100.00
2023-04-27T04:52:50.695Z,100.00
2023-04-27T04:55:50.147Z,100.00
2023-04-27T04:58:42.921Z,100.00
2023-04-27T05:01:49.080Z,99.73
2023-04-27T05:04:55.007Z,99.48
2023-04-27T05:07:55.385Z,97.38
2023-04-27T05:11:09.497Z,96.58
2023-04-27T05:14:14.153Z,95.34
2023-04-27T05:17:20.541Z,94.02
2023-04-27T05:20:25.513Z,93.44
2023-04-27T05:23:30.736Z,90.99
2023-04-27T05:26:37.000Z,89.73
2023-04-27T05:29:42.331Z,89.01
2023-04-27T05:32:47.681Z,87.67
2023-04-27T05:35:54.843Z,86.19
2023-04-27T05:39:01.298Z,84.93
2023-04-27T05:42:06.531Z,84.62
2023-04-27T05:45:11.633Z,83.96
2023-04-27T05:48:17.044Z,84.45
2023-04-27T05:51:23.432Z,83.54
2023-04-27T05:54:28.440Z,83.87
2023-04-27T05:57:34.116Z,81.96
2023-04-27T06:00:28.496Z,82.34
2023-04-27T06:03:33.633Z,81.93
2023-04-27T06:06:39.903Z,80.70
2023-04-27T06:09:46.175Z,79.63
2023-04-27T06:12:52.498Z,79.75
2023-04-27T06:15:58.390Z,79.77
2023-04-27T06:19:08.077Z,79.80
2023-04-27T06:22:13.315Z,79.76
2023-04-27T06:25:20.015Z,79.55
2023-04-27T06:28:25.583Z,78.43
2023-04-27T06:31:32.365Z,77.63
2023-04-27T06:34:37.963Z,76.36
2023-04-27T06:37:42.903Z,76.97
2023-04-27T06:40:48.207Z,76.64
2023-04-27T06:43:55.818Z,76.55
2023-04-27T06:47:02.220Z,75.20
2023-04-27T06:50:07.031Z,76.16
2023-04-27T06:53:15.269Z,75.40
2023-04-27T06:56:24.726Z,75.49
2023-04-27T06:59:30.591Z,74.82
2023-04-27T07:02:36.510Z,74.48
2023-04-27T07:05:34.684Z,73.96
2023-04-27T07:08:27.282Z,73.27
2023-04-27T07:11:32.288Z,70.57
2023-04-27T07:14:40.890Z,69.06
2023-04-27T07:17:46.538Z,70.14
2023-04-27T07:20:52.971Z,71.67
2023-04-27T07:23:58.935Z,70.51
2023-04-27T07:27:06.332Z,68.65
2023-04-27T07:30:13.107Z,68.95
2023-04-27T07:33:19.998Z,67.79
2023-04-27T07:36:27.170Z,68.72
2023-04-27T07:39:34.038Z,68.06
2023-04-27T07:42:39.754Z,68.87
2023-04-27T07:45:47.762Z,67.50
2023-04-27T07:48:53.077Z,64.60
2023-04-27T07:51:59.181Z,65.98
2023-04-27T07:55:05.062Z,63.07
2023-04-27T07:58:10.682Z,62.45
2023-04-27T08:01:16.867Z,62.45
2023-04-27T08:04:26.933Z,64.37
2023-04-27T08:07:34.618Z,64.69
2023-04-27T08:10:40.450Z,65.08
2023-04-27T08:13:41.620Z,63.49
2023-04-27T08:16:50.382Z,57.74
2023-04-27T08:19:56.783Z,56.52
2023-04-27T08:23:02.031Z,54.80
2023-04-27T08:26:07.672Z,51.90
2023-04-27T08:29:24.126Z,54.23
2023-04-27T08:32:21.510Z,55.49
2023-04-27T08:35:27.874Z,52.33
2023-04-27T08:38:34.053Z,51.52
2023-04-27T08:41:39.773Z,52.45
2023-04-27T08:44:47.064Z,51.40
2023-04-27T08:47:53.901Z,51.60
2023-04-27T08:50:52.369Z,53.00
2023-04-27T08:53:51.272Z,54.11
2023-04-27T08:56:57.348Z,51.09
2023-04-27T09:00:15.085Z,50.49
2023-04-27T09:03:20.338Z,52.61
2023-04-27T09:06:26.765Z,52.92
2023-04-27T09:09:31.662Z,52.42
2023-04-27T09:12:37.466Z,52.14
2023-04-27T09:15:42.725Z,51.66
2023-04-27T09:18:49.599Z,52.14
2023-04-27T09:21:57.756Z,50.88
2023-04-27T09:25:07.252Z,48.89
2023-04-27T09:28:13.156Z,48.33
2023-04-27T09:31:18.731Z,49.83
2023-04-27T09:34:23.994Z,50.83
2023-04-27T09:37:29.495Z,51.23
2023-04-27T09:40:33.790Z,51.61
2023-04-27T09:43:39.529Z,53.42
2023-04-27T09:46:45.621Z,52.37
2023-04-27T09:49:51.113Z,53.43
2023-04-27T09:52:57.321Z,54.08
2023-04-27T09:56:19.066Z,55.34
2023-04-27T09:59:49.811Z,53.90
2023-04-27T10:03:26.928Z,53.90
2023-04-27T10:07:03.540Z,53.49
2023-04-27T10:10:09.375Z,53.07
2023-04-27T10:13:18.426Z,51.07
2023-04-27T10:16:33.205Z,52.48
2023-04-27T10:19:38.093Z,54.02
2023-04-27T10:23:01.008Z,52.19
2023-04-27T10:26:09.221Z,53.39
2023-04-27T10:29:23.288Z,52.81
2023-04-27T10:32:41.237Z,55.19
2023-04-27T10:35:53.110Z,55.49
2023-04-27T10:39:00.076Z,54.58
2023-04-27T10:42:09.410Z,56.11
2023-04-27T10:45:07.994Z,56.15
2023-04-27T10:47:54.442Z,55.15
2023-04-27T10:50:47.361Z,51.41
2023-04-27T10:53:34.600Z,52.30
2023-04-27T10:56:27.647Z,54.70
2023-04-27T10:59:14.535Z,55.57
2023-04-27T11:02:07.312Z,56.66
2023-04-27T11:04:53.028Z,56.84
2023-04-27T11:07:45.700Z,58.07
2023-04-27T11:10:32.705Z,58.32
2023-04-27T11:13:27.093Z,58.83
2023-04-27T11:16:13.538Z,55.16
2023-04-27T11:19:08.330Z,55.97
2023-04-27T11:22:20.441Z,56.04
2023-04-27T11:25:25.947Z,54.57
2023-04-27T11:28:38.360Z,52.74
2023-04-27T11:31:56.521Z,53.51
2023-04-27T11:35:09.051Z,53.28
2023-04-27T11:38:14.118Z,54.14
2023-04-27T11:41:23.011Z,53.88
2023-04-27T11:44:28.413Z,55.08
2023-04-27T11:47:34.743Z,54.09
2023-04-27T11:50:40.742Z,52.32
2023-04-27T11:53:49.267Z,51.25
2023-04-27T11:57:04.273Z,52.41
2023-04-27T12:00:22.173Z,52.08
2023-04-27T12:03:28.744Z,52.06
2023-04-27T12:06:42.165Z,51.82
2023-04-27T12:09:47.651Z,50.68
2023-04-27T12:12:54.408Z,50.38
2023-04-27T12:16:01.129Z,50.17
2023-04-27T12:19:07.344Z,51.21
2023-04-27T12:22:12.618Z,50.81
2023-04-27T12:25:18.474Z,50.53
2023-04-27T12:28:29.896Z,50.97
2023-04-27T12:31:38.052Z,50.68
2023-04-27T12:34:43.527Z,50.46
2023-04-27T12:37:52.044Z,50.37
2023-04-27T12:40:51.470Z,51.10
2023-04-27T12:43:58.968Z,51.19
2023-04-27T12:47:03.938Z,51.06
2023-04-27T12:50:13.265Z,49.27
2023-04-27T12:53:19.758Z,49.27
2023-04-27T12:56:25.347Z,51.14
2023-04-27T12:59:30.373Z,53.03
2023-04-27T13:02:37.795Z,53.02
2023-04-27T13:05:43.620Z,52.60
2023-04-27T13:08:50.226Z,53.67
2023-04-27T13:11:57.815Z,54.26
2023-04-27T13:15:03.889Z,52.13
2023-04-27T13:18:11.237Z,52.72
2023-04-27T13:21:17.110Z,51.82
2023-04-27T13:24:25.055Z,51.72
2023-04-27T13:27:31.758Z,51.86
2023-04-27T13:30:37.239Z,51.54
2023-04-27T13:33:42.965Z,52.11
2023-04-27T13:36:49.433Z,53.23
2023-04-27T13:39:54.126Z,53.07
2023-04-27T13:42:59.916Z,53.88
2023-04-27T13:46:06.152Z,53.84
2023-04-27T13:49:11.699Z,54.32
2023-04-27T13:52:17.795Z,55.70
2023-04-27T13:55:24.706Z,57.01
2023-04-27T13:58:31.358Z,56.64
2023-04-27T14:01:36.518Z,57.63
2023-04-27T14:04:41.319Z,56.57
2023-04-27T14:07:46.827Z,57.71
2023-04-27T14:10:53.498Z,58.38
2023-04-27T14:13:59.199Z,57.80
2023-04-27T14:17:07.739Z,58.04
2023-04-27T14:20:13.229Z,58.45
2023-04-27T14:23:19.932Z,57.61
2023-04-27T14:26:25.107Z,56.65
2023-04-27T14:29:32.628Z,56.85
2023-04-27T14:32:38.128Z,56.13
2023-04-27T14:35:44.360Z,55.38
2023-04-27T14:38:50.513Z,55.06
2023-04-27T14:41:56.610Z,55.17
2023-04-27T14:45:01.408Z,54.24
2023-04-27T14:48:07.156Z,54.01
2023-04-27T14:51:13.333Z,54.64
2023-04-27T14:54:18.879Z,54.88
2023-04-27T14:57:24.180Z,56.08
2023-04-27T15:00:30.099Z,57.09
2023-04-27T15:03:36.474Z,57.61
2023-04-27T15:06:43.111Z,58.46
2023-04-27T15:09:50.036Z,59.52
2023-04-27T15:12:55.242Z,60.21
2023-04-27T15:16:01.015Z,61.64
2023-04-27T15:19:07.422Z,62.73
2023-04-27T15:22:13.491Z,63.99
2023-04-27T15:25:18.490Z,64.23
2023-04-27T15:28:24.031Z,64.60
2023-04-27T15:31:29.683Z,64.93
2023-04-27T15:34:35.359Z,64.99
2023-04-27T15:37:41.854Z,65.45
2023-04-27T15:40:47.632Z,66.13
2023-04-27T15:43:53.308Z,66.26
2023-04-27T15:46:59.887Z,65.99
2023-04-27T15:50:07.406Z,66.72
2023-04-27T15:53:12.695Z,66.79
2023-04-27T15:56:17.518Z,68.11
2023-04-27T15:59:24.147Z,68.62
2023-04-27T16:02:30.490Z,69.61
2023-04-27T16:05:36.125Z,70.70
2023-04-27T16:08:41.939Z,71.87
2023-04-27T16:11:49.668Z,72.65
2023-04-27T16:14:55.371Z,73.17
2023-04-27T16:18:01.001Z,73.92
2023-04-27T16:21:08.071Z,74.72
2023-04-27T16:24:12.798Z,76.14
2023-04-27T16:27:18.711Z,76.78
2023-04-27T16:30:25.318Z,77.49
2023-04-27T16:33:30.474Z,77.91
2023-04-27T16:36:43.006Z,78.98
2023-04-27T16:39:48.913Z,80.58
2023-04-27T16:42:55.524Z,81.41
2023-04-27T16:46:02.645Z,81.78
2023-04-27T16:49:02.761Z,82.67
2023-04-27T16:52:09.072Z,83.32
2023-04-27T16:55:14.884Z,84.19
2023-04-27T16:58:20.202Z,85.62
2023-04-27T17:01:25.600Z,86.10
2023-04-27T17:04:31.087Z,87.70
2023-04-27T17:07:38.457Z,87.84
2023-04-27T17:10:44.359Z,88.26
2023-04-27T17:13:49.642Z,88.69
2023-04-27T17:16:55.823Z,89.73
2023-04-27T17:20:01.601Z,90.58
2023-04-27T17:23:11.998Z,91.33
2023-04-27T17:26:18.570Z,91.92
2023-04-27T17:29:24.400Z,92.07
2023-04-27T17:32:30.075Z,93.10
2023-04-27T17:35:35.797Z,93.64
2023-04-27T17:38:41.655Z,94.43
2023-04-27T17:41:47.089Z,95.27
2023-04-27T17:44:54.315Z,96.11
2023-04-27T17:48:01.099Z,96.91
2023-04-27T17:51:06.372Z,97.68
2023-04-27T17:54:12.282Z,98.28
2023-04-27T17:57:17.944Z,99.21
2023-04-27T18:00:25.616Z,100.00
2023-04-27T18:03:31.136Z,99.98
2023-04-27T18:06:38.897Z,100.00
2023-04-27T18:09:44.634Z,100.00
2023-04-27T18:12:50.762Z,99.91
2023-04-27T18:15:56.391Z,99.86
2023-04-27T18:19:02.048Z,100.00
2023-04-27T18:22:07.304Z,100.00
2023-04-27T18:25:12.873Z,100.00
2023-04-27T18:28:18.571Z,100.00
2023-04-27T18:31:31.956Z,100.00
2023-04-27T18:34:38.054Z,100.00
2023-04-27T18:37:43.398Z,100.00
2023-04-27T18:40:48.628Z,100.00
2023-04-27T18:43:55.312Z,100.00
2023-04-27T18:47:01.824Z,100.00
2023-04-27T18:50:08.166Z,100.00
2023-04-27T18:53:14.702Z,100.00
2023-04-27T18:56:21.985Z,100.00
2023-04-27T18:59:26.572Z,100.00
2023-04-27T19:02:33.031Z,100.00
2023-04-27T19:05:38.642Z,100.00
2023-04-27T19:08:45.287Z,100.00
2023-04-27T19:12:01.979Z,100.00
2023-04-27T19:14:58.628Z,100.00
2023-04-27T19:18:10.675Z,100.00
2023-04-27T19:21:11.101Z,100.00
2023-04-27T19:24:19.497Z,100.00
2023-04-27T19:27:24.855Z,100.00
2023-04-27T19:30:29.668Z,100.00
2023-04-27T19:33:36.644Z,100.00
2023-04-27T19:36:42.325Z,100.00
2023-04-27T19:39:47.940Z,100.00
2023-04-27T19:42:53.645Z,100.00
2023-04-27T19:45:58.314Z,100.00
2023-04-27T19:49:03.103Z,100.00
2023-04-27T19:52:08.847Z,100.00
2023-04-27T19:55:14.339Z,100.00
2023-04-27T19:58:19.137Z,100.00
2023-04-27T20:01:24.630Z,100.00
2023-04-27T20:04:29.826Z,100.00
2023-04-27T20:07:36.590Z,100.00
2023-04-27T20:10:41.410Z,100.00
2023-04-27T20:13:47.205Z,100.00
2023-04-27T20:16:52.770Z,100.00
2023-04-27T20:19:58.066Z,100.00
2023-04-27T20:23:03.168Z,100.00
2023-04-27T20:26:09.029Z,100.00
2023-04-27T20:29:14.988Z,100.00
2023-04-27T20:32:20.249Z,100.00
2023-04-27T20:35:25.657Z,100.00
2023-04-27T20:38:31.558Z,100.00
2023-04-27T20:41:37.849Z,100.00
2023-04-27T20:44:37.045Z,100.00
2023-04-27T20:47:43.267Z,100.00
2023-04-27T20:50:49.323Z,100.00
2023-04-27T20:53:55.177Z,100.00
2023-04-27T20:57:00.706Z,100.00
2023-04-27T21:00:06.451Z,100.00
2023-04-27T21:03:06.754Z,100.00
2023-04-27T21:06:12.046Z,100.00
2023-04-27T21:09:17.113Z,100.00
2023-04-27T21:12:24.990Z,100.00
2023-04-27T21:15:25.261Z,100.00
2023-04-27T21:18:31.081Z,100.00
2023-04-27T21:21:39.071Z,100.00
2023-04-27T21:24:45.588Z,100.00
2023-04-27T21:27:50.987Z,100.00
2023-04-27T21:30:56.567Z,100.00
2023-04-27T21:34:02.221Z,100.00
2023-04-27T21:37:08.959Z,100.00
2023-04-27T21:40:14.789Z,100.00
2023-04-27T21:43:20.071Z,100.00
2023-04-27T21:46:25.442Z,100.00
2023-04-27T21:49:30.021Z,100.00
2023-04-27T21:52:35.816Z,100.00
2023-04-27T21:55:41.399Z,100.00
2023-04-27T21:58:47.382Z,100.00
2023-04-27T22:01:53.028Z,100.00
2023-04-27T22:04:59.857Z,100.00
2023-04-27T22:08:06.453Z,100.00
2023-04-27T22:11:04.855Z,100.00
2023-04-27T22:14:10.415Z,100.00
2023-04-27T22:17:18.960Z,100.00
2023-04-27T22:20:24.307Z,100.00
2023-04-27T22:23:30.386Z,100.00
2023-04-27T22:26:35.856Z,100.00
2023-04-27T22:29:43.644Z,100.00
2023-04-27T22:32:49.512Z,100.00
2023-04-27T22:35:56.554Z,100.00
2023-04-27T22:39:04.284Z,100.00
2023-04-27T22:42:02.451Z,100.00
2023-04-27T22:45:08.527Z,100.00
2023-04-27T22:48:13.720Z,100.00
2023-04-27T22:51:26.102Z,100.00
2023-04-27T22:54:31.409Z,100.00
2023-04-27T22:57:37.089Z,100.00
2023-04-27T23:00:42.836Z,100.00
2023-04-27T23:03:48.556Z,100.00
2023-04-27T23:06:55.709Z,100.00
2023-04-27T23:10:01.888Z,100.00
2023-04-27T23:13:02.148Z,100.00
2023-04-27T23:16:08.016Z,100.00
2023-04-27T23:19:13.052Z,100.00
2023-04-27T23:22:17.582Z,100.00
2023-04-27T23:25:23.261Z,100.00
2023-04-27T23:28:29.279Z,100.00
2023-04-27T23:31:36.760Z,100.00
2023-04-27T23:34:43.529Z,100.00
2023-04-27T23:37:48.781Z,100.00
2023-04-27T23:40:55.307Z,100.00
2023-04-27T23:44:01.462Z,100.00
2023-04-27T23:47:07.250Z,100.00
2023-04-27T23:50:12.384Z,100.00
2023-04-27T23:53:18.205Z,100.00
2023-04-27T23:56:32.101Z,100.00
2023-04-27T23:59:37.983Z,100.00
